createdAt,value
2023-04-19T00:02:23.883Z,281.73
2023-04-19T00:04:53.125Z,271.10
2023-04-19T00:07:21.544Z,270.52
2023-04-19T00:09:50.674Z,260.33
2023-04-19T00:12:18.286Z,292.13
2023-04-19T00:14:46.004Z,295.33
2023-04-19T00:17:13.753Z,299.23
2023-04-19T00:19:42.377Z,279.58
2023-04-19T00:22:10.653Z,280.38
2023-04-19T00:24:38.763Z,279.42
2023-04-19T00:27:07.740Z,283.70
2023-04-19T00:29:35.512Z,276.70
2023-04-19T00:32:05.797Z,273.98
2023-04-19T00:34:33.692Z,278.95
2023-04-19T00:37:01.346Z,293.10
2023-04-19T00:39:29.021Z,279.98
2023-04-19T00:41:57.371Z,265.63
2023-04-19T00:44:26.399Z,283.67
2023-04-19T00:46:56.819Z,279.65
2023-04-19T00:49:25.105Z,277.73
2023-04-19T00:51:53.169Z,274.92
2023-04-19T00:54:20.993Z,284.83
2023-04-19T00:56:50.991Z,279.40
2023-04-19T00:59:19.793Z,279.45
2023-04-19T01:01:48.918Z,269.63
2023-04-19T01:04:17.386Z,260.45
2023-04-19T01:06:47.559Z,268.00
2023-04-19T01:09:15.238Z,266.40
2023-04-19T01:11:43.666Z,279.75
2023-04-19T01:14:11.612Z,268.05
2023-04-19T01:16:39.979Z,277.67
2023-04-19T01:19:09.445Z,293.20
2023-04-19T01:21:38.271Z,275.98
2023-04-19T01:24:08.155Z,270.88
2023-04-19T01:26:35.887Z,252.48
2023-04-19T01:29:04.164Z,270.35
2023-04-19T01:31:32.030Z,272.00
2023-04-19T01:33:59.757Z,273.02
2023-04-19T01:36:27.835Z,272.25
2023-04-19T01:38:57.865Z,281.73
2023-04-19T01:41:27.600Z,298.08
2023-04-19T01:43:55.244Z,262.95
2023-04-19T01:46:22.964Z,281.02
2023-04-19T01:48:52.154Z,277.85
2023-04-19T01:51:22.845Z,280.00
2023-04-19T01:53:53.465Z,274.52
2023-04-19T01:56:21.787Z,265.20
2023-04-19T01:58:50.835Z,267.95
2023-04-19T02:01:18.657Z,267.90
2023-04-19T02:03:46.624Z,263.23
2023-04-19T02:06:15.014Z,263.90
2023-04-19T02:08:44.044Z,264.95
2023-04-19T02:11:14.316Z,282.33
2023-04-19T02:13:42.478Z,271.65
2023-04-19T02:16:12.189Z,277.13
2023-04-19T02:18:40.569Z,278.48
2023-04-19T02:21:09.272Z,283.35
2023-04-19T02:23:37.002Z,288.15
2023-04-19T02:26:04.770Z,263.25
2023-04-19T02:28:32.791Z,261.38
2023-04-19T02:31:00.530Z,262.15
2023-04-19T02:33:30.124Z,272.75
2023-04-19T02:35:57.743Z,273.42
2023-04-19T02:38:25.488Z,267.67
2023-04-19T02:40:54.836Z,272.27
2023-04-19T02:43:22.541Z,277.23
2023-04-19T02:45:50.634Z,263.02
2023-04-19T02:48:18.509Z,264.83
2023-04-19T02:50:47.521Z,283.35
2023-04-19T02:53:15.468Z,272.58
2023-04-19T02:55:43.587Z,279.50
2023-04-19T02:58:16.625Z,272.15
2023-04-19T03:01:00.614Z,263.95
2023-04-19T03:03:28.665Z,269.90
2023-04-19T03:05:58.576Z,276.02
2023-04-19T03:08:26.606Z,269.33
2023-04-19T03:10:54.232Z,281.13
2023-04-19T03:13:22.034Z,272.60
2023-04-19T03:15:50.159Z,280.92
2023-04-19T03:18:21.647Z,267.88
2023-04-19T03:20:49.307Z,248.35
2023-04-19T03:23:18.420Z,260.15
2023-04-19T03:25:47.145Z,279.67
2023-04-19T03:28:31.803Z,268.45
2023-04-19T03:31:17.991Z,260.60
2023-04-19T03:33:49.385Z,273.73
2023-04-19T03:36:18.127Z,284.38
2023-04-19T03:38:48.820Z,277.40
2023-04-19T03:41:22.098Z,252.52
2023-04-19T03:43:54.984Z,264.98
2023-04-19T03:46:25.719Z,284.95
2023-04-19T03:48:53.978Z,268.58
2023-04-19T03:51:23.146Z,272.75
2023-04-19T03:53:52.202Z,279.35
2023-04-19T03:56:20.487Z,278.37
2023-04-19T03:58:51.493Z,273.35
2023-04-19T04:01:19.896Z,261.07
2023-04-19T04:03:48.225Z,272.13
2023-04-19T04:06:16.167Z,267.17
2023-04-19T04:08:43.984Z,256.63
2023-04-19T04:11:13.088Z,277.87
2023-04-19T04:13:40.885Z,277.13
2023-04-19T04:16:21.728Z,259.30
2023-04-19T04:18:51.692Z,254.73
2023-04-19T04:21:19.526Z,268.00
2023-04-19T04:23:49.919Z,277.10
2023-04-19T04:26:39.637Z,237.23
2023-04-19T04:29:29.022Z,260.80
2023-04-19T04:31:59.233Z,266.37
2023-04-19T04:34:33.029Z,257.33
2023-04-19T04:37:08.733Z,248.80
2023-04-19T04:39:39.325Z,251.10
2023-04-19T04:42:09.918Z,248.53
2023-04-19T04:44:38.854Z,248.23
2023-04-19T04:47:08.123Z,239.60
2023-04-19T04:49:42.128Z,246.00
2023-04-19T04:52:10.203Z,244.73
2023-04-19T04:54:48.043Z,275.10
2023-04-19T04:57:25.065Z,255.97
2023-04-19T04:59:52.832Z,240.10
2023-04-19T05:02:22.549Z,257.53
2023-04-19T05:04:52.327Z,246.57
2023-04-19T05:07:19.960Z,246.67
2023-04-19T05:09:47.677Z,238.73
2023-04-19T05:12:20.283Z,247.47
2023-04-19T05:14:49.219Z,243.37
2023-04-19T05:17:17.176Z,248.57
2023-04-19T05:19:46.272Z,247.88
2023-04-19T05:22:13.973Z,257.80
2023-04-19T05:24:42.853Z,257.13
2023-04-19T05:27:11.766Z,261.47
2023-04-19T05:29:39.498Z,250.50
2023-04-19T05:32:08.914Z,288.42
2023-04-19T05:34:48.454Z,250.20
2023-04-19T05:37:17.271Z,275.43
2023-04-19T05:39:45.180Z,265.57
2023-04-19T05:42:12.879Z,260.70
2023-04-19T05:44:40.622Z,272.50
2023-04-19T05:47:09.816Z,261.98
2023-04-19T05:50:05.905Z,249.50
2023-04-19T05:52:40.068Z,239.07
2023-04-19T05:55:08.422Z,245.02
2023-04-19T05:57:41.540Z,272.25
2023-04-19T06:00:12.598Z,259.85
2023-04-19T06:03:01.631Z,285.55
2023-04-19T06:05:29.873Z,273.35
2023-04-19T06:08:02.476Z,285.65
2023-04-19T06:10:40.497Z,270.25
2023-04-19T06:13:18.625Z,258.48
2023-04-19T06:15:47.119Z,278.73
2023-04-19T06:18:19.583Z,292.25
2023-04-19T06:20:48.214Z,295.20
2023-04-19T06:23:17.153Z,303.25
2023-04-19T06:25:45.087Z,298.25
2023-04-19T06:28:12.841Z,295.88
2023-04-19T06:30:40.537Z,291.90
2023-04-19T06:33:08.181Z,302.70
2023-04-19T06:35:37.574Z,292.48
2023-04-19T06:38:05.189Z,306.95
2023-04-19T06:40:32.862Z,299.23
2023-04-19T06:43:00.560Z,283.10
2023-04-19T06:45:29.259Z,290.55
2023-04-19T06:47:56.975Z,310.23
2023-04-19T06:50:24.800Z,310.52
2023-04-19T06:52:54.356Z,305.05
2023-04-19T06:55:22.249Z,292.52
2023-04-19T06:57:49.956Z,292.27
2023-04-19T07:00:18.550Z,300.13
2023-04-19T07:02:46.304Z,308.90
2023-04-19T07:05:14.284Z,300.88
2023-04-19T07:07:42.149Z,313.38
2023-04-19T07:10:12.811Z,304.85
2023-04-19T07:12:40.470Z,315.48
2023-04-19T07:15:09.268Z,311.70
2023-04-19T07:17:37.651Z,322.85
2023-04-19T07:20:06.732Z,324.88
2023-04-19T07:22:34.398Z,335.42
2023-04-19T07:25:02.080Z,334.13
2023-04-19T07:27:31.083Z,326.77
2023-04-19T07:29:58.813Z,303.90
2023-04-19T07:32:26.781Z,331.95
2023-04-19T07:34:54.437Z,306.05
2023-04-19T07:37:22.397Z,329.20
2023-04-19T07:39:50.123Z,333.92
2023-04-19T07:42:17.798Z,335.38
2023-04-19T07:44:46.853Z,312.83
2023-04-19T07:47:14.509Z,326.75
2023-04-19T07:49:44.273Z,317.83
2023-04-19T07:52:11.907Z,312.92
2023-04-19T07:54:40.082Z,309.02
2023-04-19T07:57:07.754Z,309.60
2023-04-19T07:59:35.415Z,316.80
2023-04-19T08:02:04.558Z,327.13
2023-04-19T08:04:32.695Z,326.83
2023-04-19T08:07:00.834Z,328.30
2023-04-19T08:09:28.564Z,320.50
2023-04-19T08:11:57.040Z,323.17
2023-04-19T08:14:37.799Z,327.92
2023-04-19T08:17:25.581Z,314.75
2023-04-19T08:19:54.739Z,315.23
2023-04-19T08:22:22.616Z,343.98
2023-04-19T08:24:51.417Z,344.83
2023-04-19T08:27:19.492Z,348.23
2023-04-19T08:29:47.537Z,335.55
2023-04-19T08:32:16.782Z,355.70
2023-04-19T08:34:44.560Z,337.38
2023-04-19T08:37:12.268Z,347.75
2023-04-19T08:39:40.229Z,366.20
2023-04-19T08:42:18.411Z,359.95
2023-04-19T08:45:23.421Z,351.52
2023-04-19T08:47:58.642Z,322.25
2023-04-19T08:53:12.269Z,324.65
2023-04-19T08:55:51.018Z,318.45
2023-04-19T08:58:51.936Z,340.48
2023-04-19T09:01:34.048Z,348.85
2023-04-19T09:04:16.918Z,341.15
2023-04-19T09:06:55.076Z,330.42
2023-04-19T09:11:55.226Z,352.35
2023-04-19T09:14:24.114Z,352.77
2023-04-19T09:16:52.841Z,351.90
2023-04-19T09:19:25.282Z,344.73
2023-04-19T09:21:54.729Z,359.88
2023-04-19T09:27:12.043Z,340.02
2023-04-19T09:29:40.017Z,324.85
2023-04-19T09:32:07.938Z,350.63
2023-04-19T09:34:37.020Z,338.60
2023-04-19T09:37:21.530Z,341.52
2023-04-19T09:40:00.592Z,339.42
2023-04-19T09:48:02.102Z,328.58
2023-04-19T09:50:31.799Z,338.17
2023-04-19T09:53:00.972Z,333.92
2023-04-19T09:55:30.345Z,336.17
2023-04-19T09:58:03.514Z,335.50
2023-04-19T10:00:36.166Z,335.83
2023-04-19T10:03:13.644Z,323.73
2023-04-19T10:05:44.259Z,322.50
2023-04-19T10:08:13.558Z,335.02
2023-04-19T10:10:42.891Z,332.65
2023-04-19T10:15:51.266Z,331.25
2023-04-19T10:18:23.915Z,328.23
2023-04-19T10:20:59.824Z,339.80
2023-04-19T10:23:28.861Z,327.02
2023-04-19T10:25:57.871Z,332.55
2023-04-19T10:28:29.629Z,346.17
2023-04-19T10:31:02.325Z,336.52
2023-04-19T10:33:36.689Z,310.80
2023-04-19T10:36:10.590Z,325.17
2023-04-19T10:38:40.450Z,295.40
2023-04-19T10:41:17.034Z,316.92
2023-04-19T10:43:48.065Z,301.00
2023-04-19T10:46:18.410Z,276.25
2023-04-19T10:48:54.474Z,263.40
2023-04-19T10:51:27.802Z,257.00
2023-04-19T10:53:57.931Z,254.88
2023-04-19T10:57:02.161Z,253.23
2023-04-19T10:59:31.600Z,255.55
2023-04-19T11:02:01.086Z,245.48
2023-04-19T11:05:04.207Z,266.33
2023-04-19T11:07:41.507Z,223.98
2023-04-19T11:10:11.453Z,228.32
2023-04-19T11:12:43.372Z,238.27
2023-04-19T11:15:11.876Z,241.05
2023-04-19T11:17:39.778Z,224.43
2023-04-19T11:20:10.757Z,238.55
2023-04-19T11:22:41.237Z,241.02
2023-04-19T11:25:13.078Z,225.23
2023-04-19T11:27:42.754Z,234.93
2023-04-19T11:30:12.605Z,230.00
2023-04-19T11:32:46.581Z,229.50
2023-04-19T11:35:14.671Z,220.90
2023-04-19T11:37:44.026Z,214.27
2023-04-19T11:40:16.075Z,212.43
2023-04-19T11:42:44.080Z,204.05
2023-04-19T11:45:22.338Z,219.43
2023-04-19T11:47:57.422Z,212.18
2023-04-19T11:50:35.482Z,217.27
2023-04-19T11:53:16.057Z,226.68
2023-04-19T11:55:45.332Z,211.07
2023-04-19T11:58:29.072Z,210.48
2023-04-19T12:00:58.231Z,202.68
2023-04-19T12:03:27.280Z,188.00
2023-04-19T12:06:00.132Z,205.02
2023-04-19T12:08:34.297Z,194.82
2023-04-19T12:11:03.531Z,189.70
2023-04-19T12:13:32.155Z,199.90
2023-04-19T12:16:00.702Z,194.07
2023-04-19T12:18:28.442Z,194.23
2023-04-19T12:20:56.226Z,198.27
2023-04-19T12:23:23.929Z,184.50
2023-04-19T12:25:53.776Z,183.35
2023-04-19T12:28:21.514Z,186.35
2023-04-19T12:30:49.150Z,193.82
2023-04-19T12:33:16.890Z,179.43
2023-04-19T12:35:44.965Z,195.43
2023-04-19T12:38:12.678Z,191.65
2023-04-19T12:40:40.342Z,174.95
2023-04-19T12:43:09.406Z,173.60
2023-04-19T12:45:37.140Z,190.45
2023-04-19T12:48:05.040Z,174.48
2023-04-19T12:50:32.752Z,176.23
2023-04-19T12:53:00.423Z,182.30
2023-04-19T12:55:28.236Z,191.32
2023-04-19T12:57:55.863Z,184.88
2023-04-19T13:00:25.088Z,193.88
2023-04-19T13:02:52.828Z,185.43
2023-04-19T13:05:20.815Z,181.27
2023-04-19T13:07:48.576Z,174.60
2023-04-19T13:10:16.693Z,174.10
2023-04-19T13:12:44.479Z,170.23
2023-04-19T13:15:12.607Z,179.00
2023-04-19T13:17:41.596Z,167.20
2023-04-19T13:20:10.550Z,164.80
2023-04-19T13:22:38.568Z,176.88
2023-04-19T13:25:06.967Z,188.00
2023-04-19T13:27:34.626Z,184.07
2023-04-19T13:30:02.306Z,165.35
2023-04-19T13:32:30.332Z,172.68
2023-04-19T13:34:59.390Z,164.57
2023-04-19T13:37:27.040Z,163.43
2023-04-19T13:40:03.959Z,167.35
2023-04-19T13:42:39.264Z,141.75
2023-04-19T13:45:08.023Z,145.00
2023-04-19T13:47:35.733Z,151.15
2023-04-19T13:50:05.684Z,147.63
2023-04-19T13:52:33.428Z,141.95
2023-04-19T13:55:01.077Z,140.23
2023-04-19T13:57:29.001Z,135.60
2023-04-19T13:59:56.664Z,140.20
2023-04-19T14:02:24.565Z,140.45
2023-04-19T14:04:52.379Z,138.90
2023-04-19T14:07:21.388Z,136.13
2023-04-19T14:09:49.039Z,134.35
2023-04-19T14:12:16.721Z,127.88
2023-04-19T14:14:44.410Z,125.63
2023-04-19T14:17:12.084Z,118.93
2023-04-19T14:19:39.748Z,126.70
2023-04-19T14:22:07.434Z,123.60
2023-04-19T14:24:36.529Z,113.45
2023-04-19T14:27:10.996Z,106.90
2023-04-19T14:29:39.136Z,101.53
2023-04-19T14:32:23.458Z,94.70
2023-04-19T14:34:52.654Z,93.93
2023-04-19T14:37:20.402Z,88.13
2023-04-19T14:39:49.435Z,86.18
2023-04-19T14:42:17.175Z,84.20
2023-04-19T14:44:45.629Z,86.72
2023-04-19T14:47:13.703Z,85.03
2023-04-19T14:49:42.213Z,84.55
2023-04-19T14:52:09.950Z,77.22
2023-04-19T14:54:37.655Z,78.38
2023-04-19T14:57:06.725Z,74.55
2023-04-19T14:59:34.437Z,83.25
2023-04-19T15:02:02.318Z,74.00
2023-04-19T15:04:30.147Z,82.97
2023-04-19T15:06:57.857Z,73.55
2023-04-19T15:09:25.511Z,74.03
2023-04-19T15:11:53.151Z,73.47
2023-04-19T15:14:28.669Z,73.68
2023-04-19T15:16:56.315Z,72.32
2023-04-19T15:19:24.077Z,72.60
2023-04-19T15:21:51.705Z,72.75
2023-04-19T15:24:19.447Z,78.55
2023-04-19T15:26:47.554Z,73.57
2023-04-19T15:29:15.805Z,71.38
2023-04-19T15:31:45.201Z,68.30
2023-04-19T15:34:12.887Z,74.72
2023-04-19T15:36:41.270Z,70.13
2023-04-19T15:39:09.172Z,77.00
2023-04-19T15:41:36.882Z,73.72
2023-04-19T15:44:04.534Z,74.18
2023-04-19T15:46:32.318Z,67.97
2023-04-19T15:49:01.788Z,69.32
2023-04-19T15:51:29.384Z,69.60
2023-04-19T15:53:57.446Z,75.28
2023-04-19T15:56:25.177Z,75.93
2023-04-19T15:58:53.176Z,69.13
2023-04-19T16:01:22.831Z,75.95
2023-04-19T16:03:50.733Z,72.97
2023-04-19T16:06:19.787Z,76.25
2023-04-19T16:08:47.473Z,68.43
2023-04-19T16:11:15.176Z,64.63
2023-04-19T16:13:42.822Z,61.95
2023-04-19T16:16:10.547Z,64.95
2023-04-19T16:18:38.336Z,65.88
2023-04-19T16:21:06.458Z,69.93
2023-04-19T16:23:35.475Z,62.75
2023-04-19T16:26:03.114Z,71.30
2023-04-19T16:28:30.859Z,66.50
2023-04-19T16:30:58.597Z,62.63
2023-04-19T16:33:26.267Z,64.45
2023-04-19T16:35:54.071Z,61.63
2023-04-19T16:38:21.719Z,62.20
2023-04-19T16:40:51.426Z,64.00
2023-04-19T16:43:20.741Z,63.70
2023-04-19T16:45:48.636Z,58.10
2023-04-19T16:48:16.431Z,60.03
2023-04-19T16:50:44.338Z,61.17
2023-04-19T16:53:12.547Z,63.40
2023-04-19T16:55:40.234Z,63.08
2023-04-19T16:58:09.254Z,64.18
2023-04-19T17:00:36.894Z,58.63
2023-04-19T17:03:04.967Z,58.35
2023-04-19T17:05:32.715Z,62.78
2023-04-19T17:08:00.376Z,60.85
2023-04-19T17:10:28.587Z,54.83
2023-04-19T17:12:56.406Z,56.60
2023-04-19T17:15:26.001Z,54.13
2023-04-19T17:17:53.789Z,60.28
2023-04-19T17:20:21.597Z,57.75
2023-04-19T17:22:49.259Z,56.33
2023-04-19T17:25:16.959Z,53.00
2023-04-19T17:27:46.581Z,54.10
2023-04-19T17:30:14.793Z,56.83
2023-04-19T17:32:43.839Z,53.38
2023-04-19T17:35:11.511Z,50.50
2023-04-19T17:37:39.174Z,54.53
2023-04-19T17:40:08.252Z,57.33
2023-04-19T17:42:35.940Z,57.05
2023-04-19T17:45:04.186Z,56.33
2023-04-19T17:47:32.325Z,48.03
2023-04-19T17:50:07.943Z,50.85
2023-04-19T17:52:35.663Z,49.75
2023-04-19T17:55:04.654Z,44.55
2023-04-19T17:57:33.975Z,46.20
2023-04-19T18:00:06.556Z,50.10
2023-04-19T18:02:37.037Z,49.22
2023-04-19T18:05:07.400Z,47.00
2023-04-19T18:07:36.684Z,49.28
2023-04-19T18:10:04.808Z,53.13
2023-04-19T18:12:32.791Z,58.47
2023-04-19T18:15:00.524Z,51.38
2023-04-19T18:17:28.183Z,62.45
2023-04-19T18:19:55.861Z,51.67
2023-04-19T18:22:24.831Z,52.88
2023-04-19T18:24:53.456Z,53.03
2023-04-19T18:27:21.204Z,57.63
2023-04-19T18:29:51.813Z,49.55
2023-04-19T18:32:21.621Z,58.22
2023-04-19T18:34:49.367Z,53.90
2023-04-19T18:37:17.805Z,58.90
2023-04-19T18:39:47.114Z,60.55
2023-04-19T18:42:14.782Z,67.47
2023-04-19T18:47:13.068Z,71.60
2023-04-19T18:49:40.787Z,61.57
2023-04-19T18:52:08.413Z,65.10
2023-04-19T18:54:36.197Z,71.60
2023-04-19T18:57:22.752Z,77.50
2023-04-19T18:59:50.954Z,66.23
2023-04-19T19:02:18.839Z,72.20
2023-04-19T19:04:55.874Z,70.47
2023-04-19T19:07:35.582Z,79.77
2023-04-19T19:10:17.287Z,73.33
2023-04-19T19:12:50.264Z,77.70
2023-04-19T19:15:18.199Z,76.97
2023-04-19T19:17:49.373Z,88.37
2023-04-19T19:20:18.523Z,83.53
2023-04-19T19:22:46.440Z,89.27
2023-04-19T19:25:14.130Z,94.70
2023-04-19T19:27:49.865Z,95.93
2023-04-19T19:30:33.607Z,89.40
2023-04-19T19:33:02.740Z,86.07
2023-04-19T19:35:30.576Z,95.70
2023-04-19T19:37:58.306Z,98.60
2023-04-19T19:40:26.961Z,101.67
2023-04-19T19:42:58.603Z,95.50
2023-04-19T19:45:28.218Z,108.97
2023-04-19T19:47:59.085Z,108.70
2023-04-19T19:53:00.236Z,109.13
2023-04-19T19:55:28.375Z,117.77
2023-04-19T20:02:59.118Z,144.33
2023-04-19T20:05:27.778Z,138.43
2023-04-19T20:08:06.111Z,150.03
2023-04-19T20:10:34.282Z,159.73
2023-04-19T20:13:02.310Z,153.40
2023-04-19T20:15:30.941Z,150.70
2023-04-19T20:18:00.032Z,151.70
2023-04-19T20:20:27.869Z,156.27
2023-04-19T20:22:55.994Z,165.37
2023-04-19T20:25:23.763Z,158.67
2023-04-19T20:27:51.461Z,159.43
2023-04-19T20:30:19.075Z,162.33
2023-04-19T20:32:48.313Z,175.30
2023-04-19T20:35:17.999Z,178.30
2023-04-19T20:37:47.380Z,168.23
2023-04-19T20:40:16.373Z,164.40
2023-04-19T20:42:44.770Z,185.90
2023-04-19T20:45:14.104Z,171.97
2023-04-19T20:47:42.746Z,176.53
2023-04-19T20:50:11.128Z,170.00
2023-04-19T20:52:40.449Z,178.47
2023-04-19T20:55:09.052Z,190.40
2023-04-19T20:57:36.708Z,182.00
2023-04-19T21:00:07.948Z,183.60
2023-04-19T21:02:35.757Z,186.67
2023-04-19T21:05:03.475Z,185.70
2023-04-19T21:07:31.173Z,182.93
2023-04-19T21:10:00.406Z,169.13
2023-04-19T21:12:28.594Z,181.20
2023-04-19T21:14:56.428Z,174.70
2023-04-19T21:17:24.114Z,183.37
2023-04-19T21:19:51.834Z,180.83
2023-04-19T21:22:19.557Z,180.97
2023-04-19T21:24:47.741Z,174.53
2023-04-19T21:27:16.881Z,185.17
2023-04-19T21:29:44.946Z,181.33
2023-04-19T21:32:12.838Z,179.03
2023-04-19T21:34:40.664Z,175.47
2023-04-19T21:37:08.623Z,187.87
2023-04-19T21:39:36.542Z,181.60
2023-04-19T21:42:04.454Z,180.53
2023-04-19T21:44:34.414Z,186.10
2023-04-19T21:47:02.357Z,185.80
2023-04-19T21:49:31.015Z,185.97
2023-04-19T21:51:59.005Z,190.33
2023-04-19T21:54:33.924Z,183.33
2023-04-19T21:57:03.253Z,171.07
2023-04-19T21:59:31.542Z,171.17
2023-04-19T22:02:01.759Z,186.37
2023-04-19T22:04:31.098Z,181.13
2023-04-19T22:07:02.378Z,181.80
2023-04-19T22:09:31.094Z,171.50
2023-04-19T22:12:00.214Z,159.57
2023-04-19T22:14:30.796Z,170.03
2023-04-19T22:17:02.670Z,161.73
2023-04-19T22:19:32.652Z,175.43
2023-04-19T22:22:00.789Z,162.23
2023-04-19T22:24:29.044Z,165.63
2023-04-19T22:26:57.496Z,162.93
2023-04-19T22:29:25.705Z,164.00
2023-04-19T22:31:54.180Z,169.97
2023-04-19T22:34:22.892Z,154.77
2023-04-19T22:36:52.486Z,153.00
2023-04-19T22:39:20.802Z,161.30
2023-04-19T22:41:49.057Z,148.40
2023-04-19T22:44:17.452Z,153.93
2023-04-19T22:46:46.023Z,153.53
2023-04-19T22:49:14.330Z,147.70
2023-04-19T22:51:42.438Z,151.40
2023-04-19T22:54:12.001Z,152.77
2023-04-19T22:56:40.428Z,144.50
2023-04-19T22:59:08.973Z,152.30
2023-04-19T23:01:37.123Z,155.73
2023-04-19T23:04:05.342Z,150.03
2023-04-19T23:06:33.862Z,144.63
2023-04-19T23:09:02.075Z,144.50
2023-04-19T23:11:31.698Z,154.67
2023-04-19T23:13:59.780Z,154.07
2023-04-19T23:16:28.930Z,148.10
2023-04-19T23:18:56.950Z,143.77
2023-04-19T23:21:24.686Z,146.87
2023-04-19T23:23:52.866Z,142.87
2023-04-19T23:26:21.524Z,143.70
2023-04-19T23:28:50.512Z,140.03
2023-04-19T23:31:18.324Z,143.37
2023-04-19T23:33:46.343Z,141.67
2023-04-19T23:36:13.993Z,145.97
2023-04-19T23:38:41.691Z,145.50
2023-04-19T23:41:10.955Z,149.67
2023-04-19T23:43:38.727Z,142.30
2023-04-19T23:46:08.530Z,147.43
2023-04-19T23:48:36.335Z,134.27
2023-04-19T23:51:04.071Z,137.57
2023-04-19T23:53:31.855Z,135.90
2023-04-19T23:55:59.818Z,149.87
2023-04-19T23:58:27.518Z,132.77
